Time;durP1;ratioP1;P1;durP2;ratioP2;P2;SDS_P1;SDS_P2;PMS_P1;PMS_P2;Temp;Humidity;BMP_temperature;BMP_pressure;BME280_temperature;BME280_humidity;BME280_pressure;Samples;Min_cycle;Max_cycle;Signal;HPM_P1;HPM_P2
2020/12/14 00:01:07;;;;;;;7.55;2.30;;;7.50;90.40;;;;;;5019797;28;20091;-90
2020/12/14 00:03:33;;;;;;;7.57;2.22;;;7.50;90.20;;;;;;5016800;28;20045;-89
2020/12/14 00:05:59;;;;;;;4.78;2.20;;;7.50;90.20;;;;;;5017403;28;20377;-91
2020/12/14 00:08:25;;;;;;;7.13;2.58;;;7.50;90.30;;;;;;5021536;28;20034;-90
2020/12/14 00:10:55;;;;;;;10.13;2.35;;;7.50;90.10;;;;;;5035553;28;20022;-90
2020/12/14 00:13:21;;;;;;;6.57;2.15;;;7.60;90.10;;;;;;5035836;28;20026;-91
2020/12/14 00:15:47;;;;;;;5.90;2.65;;;7.60;90.00;;;;;;5035146;28;20362;-91
2020/12/14 00:18:13;;;;;;;7.63;2.13;;;7.60;89.70;;;;;;5035395;28;20363;-89
2020/12/14 00:20:38;;;;;;;11.90;3.35;;;7.60;89.60;;;;;;5020951;28;20037;-90
2020/12/14 00:23:04;;;;;;;9.43;2.40;;;7.60;89.20;;;;;;5035328;28;20108;-90
2020/12/14 00:25:32;;;;;;;8.27;2.25;;;7.60;89.60;;;;;;5035722;28;20030;-90
2020/12/14 00:27:58;;;;;;;6.50;2.00;;;7.60;89.40;;;;;;5039503;28;20028;-90
2020/12/14 00:30:24;;;;;;;9.75;2.22;;;7.60;89.10;;;;;;5068106;28;20073;-89
2020/12/14 00:32:49;;;;;;;9.25;2.03;;;7.60;89.40;;;;;;5047218;28;20358;-90
2020/12/14 00:35:16;;;;;;;6.63;1.98;;;7.60;89.40;;;;;;5043749;28;20048;-90
2020/12/14 00:37:41;;;;;;;8.18;2.72;;;7.70;89.60;;;;;;5030593;28;20033;-90
2020/12/14 00:40:07;;;;;;;11.90;2.80;;;7.70;88.70;;;;;;5035951;28;20030;-90
2020/12/14 00:42:33;;;;;;;8.48;2.45;;;7.70;89.00;;;;;;5040337;28;20024;-91
2020/12/14 00:45:08;;;;;;;7.15;2.20;;;7.70;88.90;;;;;;5054764;28;20049;-91
2020/12/14 00:47:33;;;;;;;9.52;2.70;;;7.70;89.50;;;;;;5037818;28;20108;-91
2020/12/14 00:50:01;;;;;;;7.95;1.98;;;7.70;88.90;;;;;;5054179;28;20104;-90
2020/12/14 00:52:27;;;;;;;13.32;2.17;;;7.70;88.70;;;;;;5041247;28;20033;-89
2020/12/14 00:54:52;;;;;;;9.90;2.15;;;7.70;88.90;;;;;;5036305;28;20108;-90
2020/12/14 00:57:18;;;;;;;7.25;2.00;;;7.70;89.00;;;;;;5054476;28;20021;-90
2020/12/14 00:59:44;;;;;;;8.93;2.30;;;7.70;88.80;;;;;;5023988;28;20099;-91
2020/12/14 01:02:12;;;;;;;8.35;2.53;;;7.70;88.60;;;;;;5056931;28;20555;-89
2020/12/14 01:04:38;;;;;;;7.95;2.20;;;7.80;88.70;;;;;;5051860;28;20029;-89
2020/12/14 01:07:06;;;;;;;8.38;1.92;;;7.80;88.50;;;;;;5054261;28;20465;-91
2020/12/14 01:09:32;;;;;;;6.65;2.00;;;7.80;88.60;;;;;;5054560;28;20032;-90
2020/12/14 01:12:01;;;;;;;9.20;2.58;;;7.80;88.30;;;;;;5039095;28;20029;-90
2020/12/14 01:14:27;;;;;;;6.10;1.80;;;7.80;88.60;;;;;;5024975;28;20069;-89
2020/12/14 01:16:56;;;;;;;8.60;1.95;;;7.80;88.90;;;;;;5053755;28;20009;-89
2020/12/14 01:19:24;;;;;;;7.53;2.20;;;7.80;88.70;;;;;;5053410;28;20037;-90
2020/12/14 01:21:50;;;;;;;7.13;2.05;;;7.80;88.70;;;;;;5044120;28;20068;-90
2020/12/14 01:24:15;;;;;;;7.68;2.00;;;7.80;89.20;;;;;;5032086;28;20539;-90
2020/12/14 01:26:41;;;;;;;6.60;1.90;;;7.80;89.00;;;;;;5033866;28;20059;-90
2020/12/14 01:29:07;;;;;;;7.25;1.95;;;7.80;89.20;;;;;;5034154;28;20343;-92
2020/12/14 01:31:33;;;;;;;8.45;2.00;;;7.80;89.40;;;;;;5033205;28;20029;-89
2020/12/14 01:33:59;;;;;;;9.25;2.03;;;7.80;89.30;;;;;;5033359;28;20470;-90
2020/12/14 01:36:34;;;;;;;8.77;1.88;;;7.80;89.50;;;;;;5033288;28;20021;-90
2020/12/14 01:39:00;;;;;;;6.80;1.90;;;7.80;89.50;;;;;;5033068;28;20030;-90
2020/12/14 01:41:25;;;;;;;7.30;1.90;;;7.90;89.30;;;;;;5034419;28;20029;-89
2020/12/14 01:43:51;;;;;;;4.57;1.70;;;7.80;89.00;;;;;;5032372;28;20029;-90
2020/12/14 01:46:29;;;;;;;7.32;2.17;;;7.90;89.00;;;;;;5034053;28;20477;-92
2020/12/14 01:48:59;;;;;;;8.35;2.13;;;7.90;88.70;;;;;;5024597;28;20022;-90
2020/12/14 01:51:29;;;;;;;5.88;1.77;;;8.00;89.00;;;;;;5034213;28;20105;-89
2020/12/14 01:53:58;;;;;;;5.75;1.75;;;8.00;89.00;;;;;;5032936;28;20124;-90
2020/12/14 01:56:24;;;;;;;5.80;2.17;;;8.00;88.70;;;;;;5033642;28;20025;-90
2020/12/14 01:58:50;;;;;;;7.78;1.95;;;7.90;88.50;;;;;;5016529;28;20469;-91
2020/12/14 02:01:16;;;;;;;8.40;2.20;;;8.00;88.90;;;;;;5017619;28;20068;-90
2020/12/14 02:03:42;;;;;;;9.10;2.22;;;8.00;88.50;;;;;;5032885;28;20028;-90
2020/12/14 02:06:08;;;;;;;6.72;1.88;;;8.00;88.80;;;;;;5016552;28;20037;-90
2020/12/14 02:08:46;;;;;;;6.78;2.22;;;8.00;88.60;;;;;;5032281;28;20034;-90
2020/12/14 02:11:11;;;;;;;8.30;1.88;;;8.00;88.70;;;;;;5026799;28;20088;-91
2020/12/14 02:13:37;;;;;;;8.65;2.17;;;8.00;88.30;;;;;;5032803;28;20030;-91
2020/12/14 02:16:03;;;;;;;6.03;1.90;;;8.10;88.60;;;;;;5032463;28;20025;-90
2020/12/14 02:18:28;;;;;;;5.78;2.08;;;8.10;88.90;;;;;;5032674;28;20161;-92
2020/12/14 02:20:54;;;;;;;7.97;2.10;;;8.10;89.10;;;;;;5032334;28;20036;-91
2020/12/14 02:23:20;;;;;;;6.05;1.98;;;8.10;89.10;;;;;;5032756;28;20367;-89
2020/12/14 02:25:46;;;;;;;5.57;2.03;;;8.10;89.30;;;;;;5031962;28;20052;-88
2020/12/14 02:28:11;;;;;;;6.03;2.03;;;8.10;89.20;;;;;;5033826;28;20029;-88
2020/12/14 02:30:37;;;;;;;6.72;2.03;;;8.10;89.30;;;;;;5018312;28;20049;-89
2020/12/14 02:33:05;;;;;;;6.18;2.05;;;8.10;89.40;;;;;;5026177;28;20018;-89
2020/12/14 02:35:31;;;;;;;7.13;1.73;;;8.20;89.50;;;;;;5026896;28;20033;-88
2020/12/14 02:37:59;;;;;;;8.18;2.03;;;8.10;89.40;;;;;;5033255;28;20096;-89
2020/12/14 02:40:25;;;;;;;6.57;1.80;;;8.20;89.60;;;;;;5034062;28;20041;-89
2020/12/14 02:42:51;;;;;;;7.90;2.08;;;8.10;89.50;;;;;;4985937;28;20465;-89
2020/12/14 02:45:16;;;;;;;9.52;2.50;;;8.20;89.80;;;;;;5000197;28;20033;-90
2020/12/14 02:47:42;;;;;;;4.53;1.60;;;8.20;89.80;;;;;;5016736;28;20061;-90
2020/12/14 02:50:08;;;;;;;4.53;1.95;;;8.10;90.00;;;;;;5004084;28;20386;-89
2020/12/14 02:52:34;;;;;;;9.57;2.25;;;8.20;90.10;;;;;;5032296;28;20033;-89
2020/12/14 02:55:00;;;;;;;8.40;2.83;;;8.20;90.20;;;;;;4998546;28;20363;-89
2020/12/14 02:57:28;;;;;;;6.65;2.00;;;8.10;90.20;;;;;;5024377;28;20025;-89
2020/12/14 02:59:56;;;;;;;13.52;3.35;;;8.20;90.40;;;;;;5010249;28;20030;-90
2020/12/14 03:02:22;;;;;;;9.98;2.47;;;8.10;90.60;;;;;;5006925;28;20034;-89
2020/12/14 03:04:50;;;;;;;6.50;2.20;;;8.10;90.80;;;;;;5015691;28;20068;-90
2020/12/14 03:07:16;;;;;;;4.45;2.10;;;8.10;91.00;;;;;;5022531;28;20088;-90
2020/12/14 03:09:42;;;;;;;6.57;1.98;;;8.10;91.00;;;;;;5034037;28;20022;-91
2020/12/14 03:12:07;;;;;;;6.53;2.20;;;8.10;91.00;;;;;;5021264;28;20024;-91
2020/12/14 03:14:33;;;;;;;8.93;3.10;;;8.10;90.90;;;;;;5028950;28;20545;-90
2020/12/14 03:17:01;;;;;;;7.25;2.67;;;8.10;91.00;;;;;;5009831;28;20033;-92
2020/12/14 03:19:26;;;;;;;11.52;2.63;;;8.10;91.00;;;;;;5014671;28;20482;-89
2020/12/14 03:21:52;;;;;;;5.60;2.55;;;8.10;91.00;;;;;;5024331;28;20033;-89
2020/12/14 03:24:18;;;;;;;6.50;2.38;;;8.10;91.10;;;;;;4994575;28;20029;-89
2020/12/14 03:26:50;;;;;;;7.43;2.22;;;8.10;91.40;;;;;;5010626;28;20030;-89
2020/12/14 03:29:16;;;;;;;7.72;2.00;;;8.10;91.50;;;;;;5013947;28;20054;-90
2020/12/14 03:31:43;;;;;;;4.88;2.22;;;8.10;91.70;;;;;;5021457;28;20121;-89
2020/12/14 03:34:11;;;;;;;5.82;2.10;;;8.10;91.80;;;;;;5023783;28;20033;-89
2020/12/14 03:36:40;;;;;;;9.15;2.70;;;8.10;92.10;;;;;;5009150;28;20026;-89
2020/12/14 03:39:08;;;;;;;7.35;2.20;;;8.10;92.20;;;;;;5024537;28;20033;-88
2020/12/14 03:41:34;;;;;;;9.38;2.30;;;8.10;92.50;;;;;;5026505;28;20030;-90
2020/12/14 03:44:00;;;;;;;8.85;2.70;;;8.00;92.70;;;;;;5014047;28;20031;-88
2020/12/14 03:46:28;;;;;;;5.57;2.40;;;8.00;93.00;;;;;;4995972;28;20022;-89
2020/12/14 03:48:55;;;;;;;6.70;2.40;;;8.00;93.20;;;;;;5016284;28;20103;-90
2020/12/14 03:51:22;;;;;;;10.27;3.00;;;8.00;93.30;;;;;;5029078;28;20002;-90
2020/12/14 03:53:49;;;;;;;4.47;2.65;;;8.00;93.40;;;;;;5020140;28;20609;-91
2020/12/14 03:56:19;;;;;;;8.52;3.05;;;8.00;93.50;;;;;;5013509;28;20161;-91
2020/12/14 03:58:44;;;;;;;8.60;3.10;;;8.00;93.50;;;;;;5009252;28;20132;-88
2020/12/14 04:01:13;;;;;;;7.03;2.63;;;8.10;93.50;;;;;;5014405;28;20492;-89
2020/12/14 04:03:40;;;;;;;6.78;2.53;;;8.10;93.70;;;;;;5015060;28;20378;-90
2020/12/14 04:06:06;;;;;;;5.55;2.30;;;8.10;93.60;;;;;;5007065;28;20022;-90
2020/12/14 04:08:32;;;;;;;6.05;2.35;;;8.10;93.50;;;;;;4998975;28;20102;-91
2020/12/14 04:10:57;;;;;;;5.93;2.60;;;8.10;93.50;;;;;;5006024;28;20029;-89
2020/12/14 04:13:23;;;;;;;9.50;2.67;;;8.10;93.50;;;;;;4996867;28;20058;-91
2020/12/14 04:15:49;;;;;;;8.38;2.90;;;8.10;93.60;;;;;;5008040;28;20026;-91
2020/12/14 04:18:14;;;;;;;9.50;3.17;;;8.10;93.60;;;;;;5011578;28;20077;-91
2020/12/14 04:20:40;;;;;;;9.88;3.28;;;8.10;93.80;;;;;;5011785;28;20449;-91
2020/12/14 04:23:06;;;;;;;9.15;3.30;;;8.20;93.70;;;;;;5017426;28;20112;-91
2020/12/14 04:25:33;;;;;;;9.45;3.60;;;8.20;93.80;;;;;;4998570;28;20030;-90
2020/12/14 04:28:00;;;;;;;8.90;2.95;;;8.20;93.90;;;;;;5014705;28;20482;-90
2020/12/14 04:30:27;;;;;;;7.75;2.90;;;8.10;94.00;;;;;;5008239;28;20061;-90
2020/12/14 04:32:53;;;;;;;8.52;3.70;;;8.20;94.10;;;;;;5014431;28;20033;-91
2020/12/14 04:35:19;;;;;;;6.85;2.85;;;8.20;94.20;;;;;;5024962;28;20029;-91
2020/12/14 04:37:44;;;;;;;8.05;3.17;;;8.20;94.30;;;;;;5029385;28;20018;-92
2020/12/14 04:40:10;;;;;;;8.57;3.08;;;8.20;94.40;;;;;;4997949;28;20044;-91
2020/12/14 04:42:37;;;;;;;8.60;3.55;;;8.20;94.40;;;;;;5015068;28;20030;-92
2020/12/14 04:45:03;;;;;;;7.78;3.63;;;8.20;94.50;;;;;;5014621;28;20076;-91
2020/12/14 04:47:29;;;;;;;5.18;2.83;;;8.20;94.60;;;;;;4991339;28;20113;-91
2020/12/14 04:49:56;;;;;;;8.10;3.50;;;8.20;94.50;;;;;;5013395;28;20527;-92
2020/12/14 04:52:23;;;;;;;8.13;3.22;;;8.20;94.50;;;;;;5013948;28;20052;-94
2020/12/14 04:54:49;;;;;;;10.52;3.78;;;8.20;94.60;;;;;;5010119;28;20507;-93
2020/12/14 04:57:19;;;;;;;8.43;3.30;;;8.10;94.80;;;;;;5009745;28;20447;-92
2020/12/14 04:59:45;;;;;;;7.18;3.30;;;8.10;94.70;;;;;;5013906;28;20026;-92
2020/12/14 05:02:11;;;;;;;9.40;3.45;;;8.20;94.80;;;;;;5015248;28;20096;-93
2020/12/14 05:04:38;;;;;;;6.35;3.15;;;8.20;94.80;;;;;;5007881;28;20365;-92
2020/12/14 05:07:04;;;;;;;7.05;3.70;;;8.20;94.80;;;;;;5013938;28;20033;-93
2020/12/14 05:09:31;;;;;;;8.20;3.63;;;8.20;94.80;;;;;;5024768;28;20030;-93
2020/12/14 05:11:57;;;;;;;11.25;3.30;;;8.20;94.80;;;;;;5029401;28;20030;-94
2020/12/14 05:14:24;;;;;;;6.57;3.53;;;8.20;94.80;;;;;;5014593;28;20085;-95
2020/12/14 05:16:51;;;;;;;7.05;3.45;;;8.20;94.80;;;;;;5013189;28;20029;-92
2020/12/14 05:19:23;;;;;;;9.30;3.28;;;8.20;94.80;;;;;;5005664;28;20131;-93
2020/12/14 05:21:51;;;;;;;8.02;3.53;;;8.30;94.80;;;;;;5014693;28;20513;-94
2020/12/14 05:24:25;;;;;;;6.07;3.55;;;8.30;94.80;;;;;;5022507;28;20030;-94
2020/12/14 05:26:52;;;;;;;6.53;3.53;;;8.30;94.70;;;;;;5014144;28;20034;-93
2020/12/14 05:29:31;;;;;;;10.55;3.83;;;8.30;94.80;;;;;;5011394;28;20041;-94
2020/12/14 05:32:05;;;;;;;8.32;4.05;;;8.30;94.80;;;;;;5044494;28;20013;-93
2020/12/14 05:34:39;;;;;;;5.20;3.05;;;8.30;94.80;;;;;;5064453;28;20031;-92
2020/12/14 05:37:07;;;;;;;8.80;2.70;;;8.30;94.80;;;;;;5037820;28;20012;-91
2020/12/14 05:39:35;;;;;;;9.27;3.58;;;8.30;94.70;;;;;;5042334;28;20029;-91
2020/12/14 05:42:18;;;;;;;7.20;3.15;;;8.40;94.70;;;;;;5033448;28;20041;-94
2020/12/14 05:44:46;;;;;;;8.52;3.83;;;8.30;94.70;;;;;;5025895;28;20620;-95
2020/12/14 05:47:25;;;;;;;6.53;3.22;;;8.30;94.50;;;;;;5021891;28;20104;-94
2020/12/14 05:49:51;;;;;;;7.75;3.20;;;8.40;94.50;;;;;;5026709;28;20029;-93
2020/12/14 05:52:19;;;;;;;5.72;2.83;;;8.40;94.50;;;;;;5045604;28;20087;-95
2020/12/14 05:54:56;;;;;;;9.65;4.43;;;8.40;94.60;;;;;;5034138;28;20022;-94
2020/12/14 05:57:34;;;;;;;7.20;3.20;;;8.40;94.50;;;;;;5032714;28;20528;-93
2020/12/14 06:00:08;;;;;;;7.10;3.35;;;8.40;94.50;;;;;;5036500;28;20427;-92
2020/12/14 06:02:37;;;;;;;7.90;3.70;;;8.40;94.50;;;;;;5027673;28;20021;-95
2020/12/14 06:05:05;;;;;;;6.60;3.58;;;8.30;94.50;;;;;;5026367;28;20113;-94
2020/12/14 06:07:32;;;;;;;8.23;4.03;;;8.30;94.60;;;;;;5024605;28;20078;-94
2020/12/14 06:10:03;;;;;;;9.48;3.10;;;8.40;94.60;;;;;;5023904;28;20065;-94
2020/12/14 06:12:30;;;;;;;6.07;4.13;;;8.30;94.70;;;;;;5036836;28;20032;-91
2020/12/14 06:15:01;;;;;;;8.57;4.63;;;8.30;94.90;;;;;;5009297;28;20112;-94
2020/12/14 06:17:27;;;;;;;;;;;8.30;94.90;;;;;;5014301;28;20030;-94
2020/12/14 06:20:21;;;;;;;6.47;3.42;;;8.30;94.90;;;;;;5027518;28;19963;-92
2020/12/14 06:22:50;;;;;;;6.38;3.65;;;8.30;94.90;;;;;;5018268;28;20053;-95
2020/12/14 06:25:17;;;;;;;7.15;3.70;;;8.30;95.10;;;;;;5041677;28;20037;-92
2020/12/14 06:27:43;;;;;;;11.80;4.97;;;8.30;95.10;;;;;;5032576;28;20026;-93
2020/12/14 06:30:32;;;;;;;8.95;4.22;;;8.30;95.20;;;;;;5031135;28;20136;-93
2020/12/14 06:33:10;;;;;;;8.68;4.95;;;8.30;95.10;;;;;;5016871;28;20412;-94
2020/12/14 06:35:53;;;;;;;8.98;5.10;;;8.30;95.10;;;;;;5013824;28;20068;-95
2020/12/14 06:38:37;;;;;;;7.25;3.85;;;8.30;95.20;;;;;;5039305;28;20259;-93
2020/12/14 06:41:04;;;;;;;7.60;4.78;;;8.30;95.20;;;;;;5020297;28;20034;-95
2020/12/14 06:43:30;;;;;;;6.18;4.32;;;8.30;95.20;;;;;;5028397;28;20068;-96
2020/12/14 06:46:06;;;;;;;13.02;5.43;;;8.30;95.20;;;;;;5039891;28;20021;-94
2020/12/14 06:48:45;;;;;;;8.93;4.65;;;8.30;95.30;;;;;;5028956;28;20041;-94
2020/12/14 06:51:13;;;;;;;11.93;5.53;;;8.30;95.40;;;;;;5040243;28;20030;-93
2020/12/14 06:53:56;;;;;;;12.98;5.75;;;8.30;95.40;;;;;;5047448;28;20032;-95
2020/12/14 06:56:31;;;;;;;9.35;4.80;;;8.20;95.60;;;;;;5052724;28;20099;-95
2020/12/14 06:59:01;;;;;;;7.00;4.07;;;8.20;95.80;;;;;;5051349;28;20026;-94
2020/12/14 07:02:05;;;;;;;;;;;;;;;;;;;;;
2020/12/14 07:04:39;;;;;;;12.35;6.78;;;8.20;95.80;;;;;;5044189;28;20359;-96
2020/12/14 07:07:17;;;;;;;12.60;7.75;;;8.20;95.90;;;;;;5030447;28;20071;-96
2020/12/14 07:09:46;;;;;;;8.55;5.20;;;8.20;96.00;;;;;;5028698;28;20030;-93
2020/12/14 07:12:14;;;;;;;13.38;7.15;;;8.20;96.10;;;;;;5040549;28;20041;-96
2020/12/14 07:17:29;;;;;;;12.25;6.47;;;8.30;96.00;;;;;;5090138;28;20404;-94
2020/12/14 07:19:56;;;;;;;10.13;5.20;;;8.30;96.00;;;;;;5076245;28;20020;-93
2020/12/14 07:22:48;;;;;;;11.45;5.45;;;8.30;96.00;;;;;;5043551;28;20036;-93
2020/12/14 07:25:21;;;;;;;11.02;5.60;;;8.30;96.00;;;;;;5061469;28;20108;-94
2020/12/14 07:27:50;;;;;;;10.57;5.97;;;8.30;95.90;;;;;;5063596;28;20031;-93
2020/12/14 07:30:21;;;;;;;9.07;5.97;;;8.30;95.90;;;;;;5059107;28;20066;-93
2020/12/14 07:32:47;;;;;;;;;;;8.30;95.90;;;;;;5077763;28;20150;-90
2020/12/14 07:35:13;;;;;;;11.98;6.82;;;8.30;95.90;;;;;;5060823;28;19909;-91
2020/12/14 07:37:57;;;;;;;11.05;5.72;;;8.30;96.00;;;;;;5060150;28;20177;-90
2020/12/14 07:40:26;;;;;;;11.77;7.05;;;8.30;96.00;;;;;;5077223;28;20174;-90
2020/12/14 07:42:58;;;;;;;14.02;7.93;;;8.30;96.00;;;;;;5077222;28;20013;-90
2020/12/14 07:45:26;;;;;;;10.68;7.57;;;8.30;96.10;;;;;;5064033;28;20126;-90
2020/12/14 07:51:27;;;;;;;13.32;8.82;;;8.30;96.20;;;;;;5093908;28;20034;-90
2020/12/14 07:54:33;;;;;;;12.05;8.75;;;8.30;96.30;;;;;;5059556;28;20025;-90
2020/12/14 07:57:01;;;;;;;13.48;9.13;;;8.30;96.40;;;;;;5059327;28;20032;-90
2020/12/14 07:59:30;;;;;;;13.00;9.18;;;8.30;96.40;;;;;;5078238;28;20024;-88
2020/12/14 08:01:56;;;;;;;12.55;8.70;;;8.30;96.50;;;;;;5055683;28;20077;-89
2020/12/14 08:04:40;;;;;;;13.45;9.20;;;8.40;96.50;;;;;;5049876;28;20696;-90
2020/12/14 08:07:09;;;;;;;16.45;11.30;;;8.40;96.60;;;;;;5067333;28;20017;-89
2020/12/14 08:09:51;;;;;;;15.07;9.57;;;8.40;96.70;;;;;;5073327;28;20025;-88
2020/12/14 08:12:16;;;;;;;;;;;8.40;96.70;;;;;;5055570;28;20520;-89
2020/12/14 08:14:54;;;;;;;12.32;9.23;;;8.50;96.60;;;;;;5046695;28;20011;-90
2020/12/14 08:17:26;;;;;;;16.35;11.45;;;8.50;96.70;;;;;;5041347;28;20051;-89
2020/12/14 08:20:24;;;;;;;14.10;10.88;;;8.50;96.80;;;;;;5072067;28;20074;-89
2020/12/14 08:23:00;;;;;;;17.30;11.48;;;8.60;96.80;;;;;;5066615;28;20017;-94
2020/12/14 08:29:04;;;;;;;16.17;11.50;;;8.60;97.50;;;;;;5077568;28;20038;-93
2020/12/14 08:31:30;;;;;;;18.10;12.20;;;8.70;97.70;;;;;;5059616;28;20059;-93
2020/12/14 08:33:59;;;;;;;16.77;11.95;;;8.70;97.80;;;;;;5078480;28;20074;-90
2020/12/14 08:36:27;;;;;;;15.80;12.27;;;8.70;97.80;;;;;;5062732;28;20028;-90
2020/12/14 08:39:23;;;;;;;15.43;11.90;;;8.70;97.90;;;;;;5078873;28;20040;-89
2020/12/14 08:42:30;;;;;;;15.82;12.23;;;8.70;97.90;;;;;;5066528;28;20117;-91
2020/12/14 08:49:23;;;;;;;15.75;12.23;;;8.80;98.00;;;;;;5097406;28;20027;-94
2020/12/14 08:51:49;;;;;;;16.08;12.07;;;8.90;98.00;;;;;;5015285;28;20518;-93
2020/12/14 08:54:41;;;;;;;19.15;12.90;;;8.90;98.00;;;;;;4991186;28;20026;-94
2020/12/14 08:57:25;;;;;;;15.52;12.70;;;8.90;98.00;;;;;;5045880;28;20547;-93
2020/12/14 09:00:06;;;;;;;19.02;13.15;;;8.90;98.10;;;;;;5059057;28;20029;-94
2020/12/14 09:02:32;;;;;;;16.42;12.90;;;8.90;98.10;;;;;;5078800;28;20025;-92
2020/12/14 09:04:58;;;;;;;17.73;13.35;;;9.00;98.00;;;;;;5070227;28;20504;-93
2020/12/14 09:07:25;;;;;;;16.08;12.48;;;9.00;98.00;;;;;;5059390;28;20055;-93
2020/12/14 09:09:51;;;;;;;15.98;12.48;;;9.10;98.00;;;;;;5075066;28;20056;-92
2020/12/14 09:12:18;;;;;;;18.15;12.05;;;9.10;98.10;;;;;;5060435;28;20063;-92
2020/12/14 09:14:43;;;;;;;18.25;12.45;;;9.20;98.10;;;;;;5074685;28;20051;-90
2020/12/14 09:17:15;;;;;;;17.83;13.10;;;9.20;98.10;;;;;;5078236;28;20048;-90
2020/12/14 09:19:51;;;;;;;16.38;12.68;;;9.20;98.20;;;;;;5061849;28;20032;-90
2020/12/14 09:22:26;;;;;;;16.35;12.60;;;9.20;98.30;;;;;;5078392;28;20058;-90
2020/12/14 09:24:52;;;;;;;18.92;13.05;;;9.30;98.30;;;;;;5079048;28;20519;-91
2020/12/14 09:27:18;;;;;;;16.70;12.13;;;9.30;98.40;;;;;;5061845;28;20051;-91
2020/12/14 09:29:45;;;;;;;17.75;13.02;;;9.40;98.40;;;;;;5078754;28;20024;-92
2020/12/14 09:32:12;;;;;;;16.73;12.60;;;9.40;98.30;;;;;;5061902;28;20039;-94
2020/12/14 09:34:39;;;;;;;16.65;12.23;;;9.50;98.30;;;;;;5078018;28;20492;-92
2020/12/14 09:37:06;;;;;;;16.73;12.32;;;9.50;98.20;;;;;;5077523;28;20023;-91
2020/12/14 09:39:35;;;;;;;17.50;11.38;;;9.60;98.30;;;;;;5061303;28;20020;-90
2020/12/14 09:42:02;;;;;;;14.65;11.10;;;9.60;98.60;;;;;;5062491;28;20024;-91
2020/12/14 09:44:29;;;;;;;13.68;9.90;;;9.60;98.30;;;;;;5078149;28;20020;-90
2020/12/14 09:47:00;;;;;;;15.43;10.60;;;9.70;98.30;;;;;;5077632;28;20024;-90
2020/12/14 09:49:26;;;;;;;13.75;11.00;;;9.70;98.20;;;;;;5077391;28;20024;-90
2020/12/14 09:51:52;;;;;;;11.85;9.32;;;9.80;98.10;;;;;;5077963;28;20031;-90
2020/12/14 09:54:18;;;;;;;13.00;9.55;;;9.80;98.20;;;;;;5058147;28;20024;-91
2020/12/14 09:56:44;;;;;;;10.90;8.05;;;9.80;98.50;;;;;;5041047;28;20039;-91
2020/12/14 09:59:12;;;;;;;10.77;7.30;;;9.90;98.20;;;;;;5056951;28;20119;-90
2020/12/14 10:01:38;;;;;;;11.95;7.80;;;9.90;98.20;;;;;;5040439;28;20107;-90
2020/12/14 10:04:04;;;;;;;9.77;7.55;;;9.90;98.20;;;;;;5057572;28;20527;-89
2020/12/14 10:06:30;;;;;;;9.85;6.78;;;9.90;98.20;;;;;;5047483;28;20020;-90
2020/12/14 10:08:55;;;;;;;10.93;6.80;;;10.00;98.20;;;;;;5077020;28;20089;-90
2020/12/14 10:11:29;;;;;;;7.70;6.15;;;10.00;98.20;;;;;;5076640;28;20032;-91
2020/12/14 10:13:55;;;;;;;9.13;5.57;;;10.00;98.10;;;;;;5076767;28;20469;-90
2020/12/14 10:16:24;;;;;;;7.38;4.80;;;10.10;98.20;;;;;;5073280;28;20520;-91
2020/12/14 10:18:56;;;;;;;5.88;5.03;;;10.10;98.10;;;;;;5040371;28;20040;-89
2020/12/14 10:21:24;;;;;;;6.05;4.95;;;10.10;98.10;;;;;;5059762;28;20051;-90
2020/12/14 10:23:50;;;;;;;8.98;5.28;;;10.20;98.00;;;;;;5060077;28;20427;-89
2020/12/14 10:26:19;;;;;;;6.45;4.38;;;10.20;97.90;;;;;;5073176;28;20024;-89
2020/12/14 10:28:47;;;;;;;9.40;4.55;;;10.20;97.90;;;;;;5073110;28;20024;-90
2020/12/14 10:31:13;;;;;;;6.47;4.78;;;10.30;97.90;;;;;;5056167;28;20033;-89
2020/12/14 10:33:39;;;;;;;5.25;4.43;;;10.30;97.80;;;;;;5050033;28;20054;-91
2020/12/14 10:36:10;;;;;;;6.00;4.50;;;10.30;97.80;;;;;;5076852;28;20020;-91
2020/12/14 10:38:37;;;;;;;6.25;4.70;;;10.30;98.00;;;;;;5077096;28;20031;-91
2020/12/14 10:41:04;;;;;;;7.10;4.25;;;10.30;97.80;;;;;;5077002;28;20024;-91
2020/12/14 10:43:30;;;;;;;7.68;4.63;;;10.40;97.70;;;;;;5077634;28;20148;-89
2020/12/14 10:45:56;;;;;;;5.90;4.30;;;10.40;97.70;;;;;;5060932;28;20110;-92
2020/12/14 10:48:22;;;;;;;6.68;4.30;;;10.40;97.70;;;;;;5082473;28;20496;-92
2020/12/14 10:50:48;;;;;;;6.65;4.20;;;10.40;97.60;;;;;;5082177;28;20024;-92
2020/12/14 10:53:14;;;;;;;6.43;4.13;;;10.50;97.60;;;;;;5066362;28;20027;-91
2020/12/14 10:55:39;;;;;;;9.45;4.13;;;10.50;97.50;;;;;;5065261;28;20032;-90
2020/12/14 10:58:05;;;;;;;5.93;3.90;;;10.50;97.50;;;;;;5064002;28;20032;-90
2020/12/14 11:00:34;;;;;;;7.07;4.63;;;10.50;97.50;;;;;;5064417;28;20031;-90
2020/12/14 11:03:08;;;;;;;6.03;4.32;;;10.50;97.50;;;;;;5044483;28;20040;-90
2020/12/14 11:05:34;;;;;;;6.03;3.92;;;10.50;97.40;;;;;;5054705;28;20027;-90
2020/12/14 11:07:59;;;;;;;7.25;4.28;;;10.60;97.40;;;;;;5063876;28;20020;-90
2020/12/14 11:10:25;;;;;;;6.35;4.28;;;10.50;97.30;;;;;;5060675;28;20062;-90
2020/12/14 11:12:51;;;;;;;7.53;4.50;;;10.60;97.20;;;;;;5076646;28;20016;-90
2020/12/14 11:15:17;;;;;;;7.03;4.10;;;10.60;97.20;;;;;;5048026;28;20024;-91
2020/12/14 11:17:43;;;;;;;5.75;4.22;;;10.60;97.20;;;;;;5081008;28;20047;-91
2020/12/14 11:20:09;;;;;;;6.00;4.30;;;10.60;97.10;;;;;;5067066;28;20028;-93
2020/12/14 11:22:36;;;;;;;6.20;4.15;;;10.60;97.10;;;;;;5062186;28;20418;-93
2020/12/14 11:25:04;;;;;;;5.55;3.75;;;10.60;97.00;;;;;;5058852;28;20021;-92
2020/12/14 11:27:29;;;;;;;5.00;3.88;;;10.60;96.90;;;;;;5078779;28;20038;-93
2020/12/14 11:29:58;;;;;;;6.57;4.35;;;10.70;96.90;;;;;;5055892;28;20513;-92
2020/12/14 11:32:24;;;;;;;6.97;4.18;;;10.70;96.80;;;;;;5043194;28;20052;-92
2020/12/14 11:34:50;;;;;;;6.05;3.63;;;10.70;96.80;;;;;;5044133;28;20466;-92
2020/12/14 11:37:17;;;;;;;5.95;4.10;;;10.70;96.80;;;;;;5075545;28;20040;-92
2020/12/14 11:39:44;;;;;;;5.65;3.88;;;10.70;96.70;;;;;;5047283;28;20036;-92
2020/12/14 11:42:09;;;;;;;6.28;4.10;;;10.80;96.70;;;;;;5044790;28;20024;-93
2020/12/14 11:44:35;;;;;;;6.80;4.05;;;10.70;96.60;;;;;;5076451;28;20030;-94
2020/12/14 11:47:01;;;;;;;8.23;4.13;;;10.80;96.60;;;;;;5054062;28;20035;-92
2020/12/14 11:49:26;;;;;;;5.50;3.47;;;10.80;96.50;;;;;;5044729;28;20033;-92
2020/12/14 11:51:52;;;;;;;6.80;4.18;;;10.80;96.40;;;;;;5049988;28;20028;-93
2020/12/14 11:54:18;;;;;;;4.72;3.70;;;10.80;96.40;;;;;;5062271;28;20024;-92
2020/12/14 11:56:45;;;;;;;6.65;3.88;;;10.80;96.40;;;;;;5058017;28;20027;-93
2020/12/14 11:59:11;;;;;;;6.53;4.00;;;10.80;96.40;;;;;;5058518;28;20171;-93
2020/12/14 12:01:37;;;;;;;6.07;4.20;;;10.90;96.40;;;;;;5049976;28;20025;-92
2020/12/14 12:04:02;;;;;;;7.03;3.88;;;10.90;96.20;;;;;;5079469;28;20039;-91
2020/12/14 12:06:29;;;;;;;5.22;3.50;;;10.80;96.20;;;;;;5075954;28;20027;-92
2020/12/14 12:11:33;;;;;;;5.75;4.15;;;10.90;96.10;;;;;;5175485;22;20063;-89
2020/12/14 12:13:59;;;;;;;5.97;4.22;;;10.90;96.10;;;;;;5076775;28;20020;-90
2020/12/14 12:16:25;;;;;;;6.50;3.28;;;10.90;96.10;;;;;;5089498;28;20020;-90
2020/12/14 12:18:59;;;;;;;11.68;4.13;;;10.90;96.00;;;;;;5090292;28;20029;-90
2020/12/14 12:21:29;;;;;;;5.95;4.28;;;10.90;95.90;;;;;;5078197;28;20024;-89
2020/12/14 12:23:58;;;;;;;5.43;3.70;;;10.90;95.90;;;;;;5105301;28;20019;-89
2020/12/14 12:26:29;;;;;;;6.40;4.05;;;10.90;95.90;;;;;;5058600;28;20070;-89
2020/12/14 12:28:57;;;;;;;5.97;3.50;;;10.90;96.00;;;;;;5074963;28;20024;-90
2020/12/14 12:31:23;;;;;;;5.68;4.00;;;10.90;95.80;;;;;;5083119;28;20097;-89
2020/12/14 12:33:51;;;;;;;7.30;3.90;;;10.90;95.90;;;;;;5070395;28;20078;-89
2020/12/14 12:36:20;;;;;;;6.07;3.13;;;11.00;95.90;;;;;;5093239;28;20030;-89
2020/12/14 12:38:48;;;;;;;6.07;3.58;;;10.90;95.70;;;;;;5089142;28;20027;-89
2020/12/14 12:41:22;;;;;;;5.63;3.35;;;11.00;95.70;;;;;;5098091;28;20046;-90
2020/12/14 12:43:48;;;;;;;5.05;2.90;;;10.90;95.80;;;;;;5064576;28;20108;-91
2020/12/14 12:46:30;;;;;;;5.53;3.00;;;11.00;95.80;;;;;;5115587;28;20475;-90
2020/12/14 12:48:59;;;;;;;5.22;3.10;;;11.00;95.80;;;;;;5073257;28;20467;-89
2020/12/14 12:51:50;;;;;;;4.63;2.90;;;11.10;95.90;;;;;;5079684;28;20070;-89
2020/12/14 12:54:19;;;;;;;5.88;2.63;;;11.20;95.50;;;;;;5096867;28;20127;-89
2020/12/14 12:56:47;;;;;;;5.40;2.70;;;11.20;95.20;;;;;;5097758;28;20081;-90
2020/12/14 12:59:16;;;;;;;6.28;2.90;;;11.20;95.40;;;;;;5096880;28;20065;-90
2020/12/14 13:01:51;;;;;;;5.53;3.00;;;11.20;95.10;;;;;;5087664;28;20013;-89
2020/12/14 13:04:24;;;;;;;7.53;3.08;;;11.30;95.10;;;;;;5109370;28;20471;-89
2020/12/14 13:07:13;;;;;;;5.45;2.72;;;11.30;94.80;;;;;;5096337;28;20074;-89
2020/12/14 13:09:46;;;;;;;5.50;3.13;;;11.30;94.70;;;;;;5093557;28;20015;-89
2020/12/14 13:12:20;;;;;;;6.05;2.75;;;11.30;94.70;;;;;;5077532;28;20047;-89
2020/12/14 13:14:49;;;;;;;5.13;2.70;;;11.30;94.70;;;;;;5059280;28;20033;-89
2020/12/14 13:17:15;;;;;;;6.10;2.92;;;11.30;94.70;;;;;;5044599;28;20480;-89
2020/12/14 13:19:57;;;;;;;6.45;3.08;;;11.30;94.70;;;;;;5071055;28;20082;-89